Time;durP1;ratioP1;P1;durP2;ratioP2;P2;SDS_P1;SDS_P2;PMS_P1;PMS_P2;Temp;Humidity;BMP_temperature;BMP_pressure;BME280_temperature;BME280_humidity;BME280_pressure;Samples;Min_cycle;Max_cycle;Signal;HPM_P1;HPM_P2
2022/05/05 00:01:25;;;;;;;0.65;0.65;;;;;;;13.45;67.38;100046.47;5106847;28;20054;-83
2022/05/05 00:03:51;;;;;;;;;;;;;;;13.37;67.13;100064.31;5107202;28;20489;-82
2022/05/05 00:06:16;;;;;;;1.27;1.17;;;;;;;13.15;68.49;100048.81;5110427;28;19916;-83
2022/05/05 00:08:41;;;;;;;;;;;;;;;13.31;69.03;100062.63;5111960;28;20188;-83
2022/05/05 00:16:34;;;;;;;1.27;1.08;;;;;;;12.92;69.50;100043.97;5111306;28;20135;-82
2022/05/05 00:19:00;;;;;;;;;;;;;;;12.95;69.78;100057.16;5111411;28;20146;-82
2022/05/05 00:21:26;;;;;;;3.63;1.48;;;;;;;12.94;69.98;100063.34;5110349;28;19923;-83
2022/05/05 00:23:51;;;;;;;;;;;;;;;13.03;69.90;100055.22;5111376;28;20036;-84
2022/05/05 00:26:17;;;;;;;0.98;0.98;;;;;;;13.00;69.60;100047.34;5110750;28;19949;-82
2022/05/05 00:28:42;;;;;;;;;;;;;;;13.00;69.64;100054.41;5111337;28;20036;-82
2022/05/05 00:31:08;;;;;;;;;;;;;;;12.88;70.55;100063.47;5110961;28;20415;-82
2022/05/05 00:33:33;;;;;;;1.13;0.57;;;;;;;12.78;69.79;100043.38;5110462;28;20388;-82
2022/05/05 00:35:58;;;;;;;;;;;;;;;12.87;70.52;100064.38;5110921;28;20106;-82
2022/05/05 00:38:24;;;;;;;;;;;;;;;12.89;70.46;100051.97;5111079;28;19922;-82
2022/05/05 00:40:49;;;;;;;0.93;0.70;;;;;;;12.71;70.61;100024.97;5110530;28;19916;-82
2022/05/05 00:43:15;;;;;;;;;;;;;;;13.05;70.28;100049.91;5113413;27;20039;-82
2022/05/05 00:45:41;;;;;;;1.10;1.00;;;;;;;12.90;70.69;100043.16;5130928;27;20358;-82
2022/05/05 00:48:07;;;;;;;;;;;;;;;12.92;71.03;100057.22;5131040;27;20074;-82
2022/05/05 00:50:34;;;;;;;1.67;1.40;;;;;;;12.93;70.21;100027.19;5130466;27;19915;-82
2022/05/05 00:53:00;;;;;;;1.85;1.45;;;;;;;12.83;70.38;100012.38;5130747;27;20027;-82
2022/05/05 00:55:26;;;;;;;2.28;1.55;;;;;;;12.98;70.37;100058.88;5112283;27;20412;-82
2022/05/05 00:57:52;;;;;;;2.78;1.58;;;;;;;12.92;70.89;100043.97;5130886;27;20043;-82
2022/05/05 01:00:17;;;;;;;;;;;;;;;12.80;70.73;100062.75;5131116;27;20027;-82
2022/05/05 01:02:43;;;;;;;1.58;1.10;;;;;;;12.43;71.56;100042.22;5111708;27;19958;-82
2022/05/05 01:05:09;;;;;;;;;;;;;;;12.45;71.58;100058.94;5130654;27;20031;-82
2022/05/05 01:07:34;;;;;;;1.13;1.02;;;;;;;12.31;71.97;100045.94;5111272;27;19911;-82
2022/05/05 01:10:00;;;;;;;;;;;;;;;12.32;72.09;100068.84;5130963;27;20080;-82
2022/05/05 01:12:31;;;;;;;1.45;1.35;;;;;;;12.34;71.92;100061.75;5130601;27;20309;-82
2022/05/05 01:14:58;;;;;;;2.00;1.45;;;;;;;12.36;71.91;100055.53;5129966;27;20038;-82
2022/05/05 01:17:26;;;;;;;1.85;0.90;;;;;;;12.28;70.99;100031.00;5129260;27;20027;-82
2022/05/05 01:19:51;;;;;;;4.03;1.63;;;;;;;12.42;70.35;100021.94;5129929;27;20034;-82
2022/05/05 01:22:17;;;;;;;;;;;;;;;12.52;70.52;100072.03;5112292;27;20039;-82
2022/05/05 01:30:12;;;;;;;1.52;1.00;;;;;;;12.32;70.59;100055.63;5129969;27;20750;-82
2022/05/05 01:32:37;;;;;;;;;;;;;;;12.38;70.70;100074.03;5130729;27;20027;-82
2022/05/05 01:35:04;;;;;;;1.95;1.73;;;;;;;12.20;70.62;100024.94;5129968;27;20449;-82
2022/05/05 01:37:30;;;;;;;1.85;1.27;;;;;;;12.43;70.66;100064.25;5129889;27;20034;-82
2022/05/05 01:39:55;;;;;;;;;;;;;;;12.33;71.23;100076.75;5130262;27;20031;-82
2022/05/05 01:42:21;;;;;;;2.30;2.10;;;;;;;12.29;70.63;100051.25;5129768;27;20391;-82
2022/05/05 01:44:46;;;;;;;;;;;;;;;12.40;70.76;100080.16;5129541;27;20025;-82
2022/05/05 01:47:11;;;;;;;;;;;;;;;12.45;70.63;100080.09;5130183;27;20018;-82
2022/05/05 01:49:37;;;;;;;1.75;1.42;;;;;;;12.20;70.99;100058.47;5129532;27;20278;-82
2022/05/05 01:52:07;;;;;;;;;;;;;;;12.51;70.98;100087.94;5129939;27;20549;-82
2022/05/05 01:54:32;;;;;;;2.60;2.35;;;;;;;12.35;70.50;100052.94;5129627;27;19915;-82
2022/05/05 01:56:58;;;;;;;;;;;;;;;12.30;71.26;100083.88;5130272;27;20046;-83
2022/05/05 01:59:23;;;;;;;;;;;;;;;12.17;71.79;100092.00;5129884;27;20021;-82
2022/05/05 02:01:48;;;;;;;1.92;0.98;;;;;;;12.05;72.20;100051.63;5130021;27;20320;-83
2022/05/05 02:04:14;;;;;;;;;;;;;;;12.24;72.11;100090.13;5129555;27;20121;-83
2022/05/05 02:06:39;;;;;;;;;;;;;;;12.18;72.26;100090.22;5129239;27;19915;-82
2022/05/05 02:09:04;;;;;;;1.13;0.97;;;;;;;11.96;72.40;100068.53;5110292;27;20430;-82
2022/05/05 02:11:30;;;;;;;;;;;;;;;11.86;73.39;100094.16;5129496;27;20031;-82
2022/05/05 02:13:55;;;;;;;;;;;;;;;11.82;72.94;100089.84;5129769;27;19916;-82
2022/05/05 02:16:20;;;;;;;1.97;0.97;;;;;;;11.59;72.43;100063.72;5129699;27;19919;-82
2022/05/05 02:18:46;;;;;;;;;;;;;;;11.68;72.34;100092.66;5129225;27;20779;-82
2022/05/05 02:21:11;;;;;;;1.55;1.20;;;;;;;11.72;71.98;100081.13;5128818;27;19911;-82
2022/05/05 02:23:36;;;;;;;;;;;;;;;11.82;71.72;100097.78;5129581;27;20037;-82
2022/05/05 02:26:02;;;;;;;;;;;;;;;11.71;72.08;100105.84;5129380;27;20010;-81
2022/05/05 02:28:27;;;;;;;1.50;1.30;;;;;;;11.55;71.90;100078.72;5128825;27;19915;-82
2022/05/05 02:30:53;;;;;;;;;;;;;;;11.53;72.40;100111.34;5129322;27;20046;-82
2022/05/05 02:33:18;;;;;;;;;;;;;;;11.55;72.33;100118.34;5128750;27;19930;-82
2022/05/05 02:35:44;;;;;;;1.13;1.13;;;;;;;11.53;71.98;100084.94;5128973;27;19919;-82
2022/05/05 02:40:53;;;;;;;0.90;0.90;;;;;;;11.45;72.03;100085.03;5128663;27;20395;-82
2022/05/05 02:43:18;;;;;;;;;;;;;;;11.56;72.28;100106.91;5109821;27;20047;-82
2022/05/05 02:45:43;;;;;;;1.05;1.02;;;;;;;11.52;72.20;100073.47;5128664;27;19915;-82
2022/05/05 02:48:09;;;;;;;;;;;;;;;11.68;72.13;100118.19;5128949;27;20768;-82
2022/05/05 02:50:34;;;;;;;;;;;;;;;11.81;71.27;100111.88;5129150;27;20265;-82
2022/05/05 02:53:00;;;;;;;1.02;0.85;;;;;;;11.76;71.06;100092.56;5128703;27;19938;-82
2022/05/05 02:55:26;;;;;;;;;;;;;;;11.73;71.45;100119.91;5128949;27;20080;-82
2022/05/05 02:57:52;;;;;;;0.75;0.68;;;;;;;11.74;71.40;100120.75;5127928;27;20388;-81
2022/05/05 03:00:19;;;;;;;;;;;;;;;11.71;72.01;100128.72;5126371;27;21320;-81
2022/05/05 03:02:44;;;;;;;2.22;1.95;;;;;;;11.61;71.41;100115.63;5110147;27;19989;-82
2022/05/05 03:05:11;;;;;;;;;;;;;;;11.57;72.25;100145.66;5089922;28;20075;-82
2022/05/05 03:07:37;;;;;;;0.50;0.50;;;;;;;11.60;71.32;100111.25;5107643;28;19917;-81
2022/05/05 03:10:03;;;;;;;2.30;2.00;;;;;;;11.62;71.78;100132.38;5107382;28;20028;-81
2022/05/05 03:12:29;;;;;;;0.98;0.93;;;;;;;11.76;71.37;100126.94;5107011;28;20027;-81
2022/05/05 03:14:54;;;;;;;;;;;;;;;11.64;71.91;100144.66;5108323;28;20028;-81
2022/05/05 03:17:20;;;;;;;1.05;1.05;;;;;;;11.32;72.97;100137.09;5107147;28;19998;-81
2022/05/05 03:19:45;;;;;;;;;;;;;;;11.31;73.23;100153.88;5107745;28;20058;-81
2022/05/05 03:22:10;;;;;;;;;;;;;;;11.39;73.46;100156.44;5107842;28;19912;-82
2022/05/05 03:24:36;;;;;;;0.30;0.30;;;;;;;11.38;73.45;100159.94;5107215;28;20365;-82
2022/05/05 03:27:02;;;;;;;;;;;;;;;11.38;73.73;100159.94;5107800;28;20043;-82
2022/05/05 03:29:27;;;;;;;;;;;;;;;11.35;73.66;100160.84;5107967;28;19922;-81
2022/05/05 03:31:53;;;;;;;1.17;1.08;;;;;;;11.22;73.79;100136.34;5107364;28;20317;-81
2022/05/05 03:34:19;;;;;;;;;;;;;;;11.34;74.95;100161.75;5088874;28;20481;-81
2022/05/05 03:36:44;;;;;;;1.05;1.02;;;;;;;11.47;75.17;100167.78;5106969;28;19923;-81
2022/05/05 03:39:09;;;;;;;;;;;;;;;11.52;74.54;100167.72;5107443;28;20035;-82
2022/05/05 03:41:35;;;;;;;;;;;;;;;11.64;74.45;100157.88;5107195;28;19915;-82
2022/05/05 03:44:00;;;;;;;0.93;0.93;;;;;;;11.58;74.69;100165.00;5107521;28;19927;-82
2022/05/05 03:46:26;;;;;;;;;;;;;;;11.53;75.34;100165.06;5107849;28;20035;-81
2022/05/05 03:48:52;;;;;;;;;;;;;;;11.70;74.55;100164.88;5108084;28;19931;-81
2022/05/05 03:51:18;;;;;;;2.05;1.83;;;;;;;11.90;73.85;100174.31;5107911;28;20024;-82
2022/05/05 03:53:43;;;;;;;;;;;;;;;11.85;72.99;100163.81;5107485;28;20482;-81
2022/05/05 03:56:09;;;;;;;0.85;0.85;;;;;;;11.38;73.74;100154.66;5106648;28;19980;-81
2022/05/05 03:58:35;;;;;;;2.13;1.10;;;;;;;11.40;74.06;100169.63;5107302;28;20059;-81
2022/05/05 04:01:00;;;;;;;;;;;;;;;11.54;74.26;100173.84;5107285;28;20312;-81
2022/05/05 04:03:31;;;;;;;;;;;;;;;11.73;74.15;100179.81;5107123;28;19923;-81
2022/05/05 04:06:01;;;;;;;0.60;0.60;;;;;;;11.73;74.22;100156.03;5106599;28;19923;-81
2022/05/05 04:08:27;;;;;;;1.50;1.40;;;;;;;11.88;74.24;100189.31;5106561;28;21164;-81
2022/05/05 04:10:52;;;;;;;;;;;;;;;12.02;74.42;100187.41;5107689;28;20504;-82
2022/05/05 04:13:19;;;;;;;3.15;2.70;;;;;;;12.41;73.28;100189.53;5107147;28;20305;-82
2022/05/05 04:15:45;;;;;;;2.30;1.45;;;;;;;12.21;72.98;100166.00;5106600;28;20028;-82
2022/05/05 04:18:10;;;;;;;;;;;;;;;12.38;72.97;100194.88;5107104;28;20028;-82
2022/05/05 04:20:35;;;;;;;1.33;1.13;;;;;;;12.25;72.33;100173.88;5106802;28;19919;-82
2022/05/05 04:23:01;;;;;;;;;;;;;;;12.22;72.96;100194.19;5107453;28;20065;-81
2022/05/05 04:25:26;;;;;;;;;;;;;;;12.30;73.12;100197.63;5107255;28;19915;-82
2022/05/05 04:27:52;;;;;;;0.98;0.95;;;;;;;12.71;71.66;100194.38;5106565;28;20003;-82
2022/05/05 04:30:17;;;;;;;;;;;;;;;12.80;71.69;100195.09;5107295;28;20122;-81
2022/05/05 04:32:46;;;;;;;4.40;1.65;;;;;;;12.91;71.28;100198.44;5106880;28;19989;-81
2022/05/05 04:35:12;;;;;;;3.22;1.95;;;;;;;12.91;71.24;100174.59;5106449;28;20038;-81
2022/05/05 04:37:38;;;;;;;;;;;;;;;13.07;70.40;100207.03;5107270;28;20420;-81
2022/05/05 04:40:04;;;;;;;3.55;1.27;;;;;;;13.22;69.94;100205.84;5107292;28;19968;-81
2022/05/05 04:42:29;;;;;;;;;;;;;;;13.49;68.79;100207.19;5106784;28;20463;-81
2022/05/05 04:44:55;;;;;;;1.23;0.95;;;;;;;13.48;68.00;100178.91;5106595;28;19915;-82
2022/05/05 04:47:20;;;;;;;;;;;;;;;13.68;67.60;100207.69;5107046;28;20057;-82
2022/05/05 04:49:45;;;;;;;;;;;;;;;13.89;66.88;100198.44;5107061;28;19915;-82
2022/05/05 04:52:11;;;;;;;;;;;;;;;13.48;67.96;100208.06;5107803;28;19986;-83
2022/05/05 04:54:36;;;;;;;2.30;2.10;;;;;;;13.41;67.93;100209.97;5110263;28;19915;-82
2022/05/05 04:57:02;;;;;;;;;;;;;;;13.48;68.21;100202.75;5110933;28;20035;-83
2022/05/05 04:59:27;;;;;;;3.55;1.38;;;;;;;13.45;67.20;100192.22;5110601;28;19923;-82
2022/05/05 05:01:53;;;;;;;;;;;;;;;13.71;67.36;100209.41;5110072;28;20861;-82
2022/05/05 05:04:18;;;;;;;;;;;;;;;13.77;67.36;100214.59;5110285;28;19972;-83
2022/05/05 05:06:43;;;;;;;0.80;0.80;;;;;;;13.77;66.64;100188.09;5109727;28;19919;-82
2022/05/05 05:09:09;;;;;;;;;;;;;;;14.04;67.24;100217.56;5110029;28;20028;-82
2022/05/05 05:11:34;;;;;;;;;;;;;;;14.21;67.10;100207.50;5110563;28;20006;-82
2022/05/05 05:14:00;;;;;;;2.20;0.80;;;;;;;14.63;66.19;100195.97;5109853;28;20308;-82
2022/05/05 05:16:25;;;;;;;;;;;;;;;15.02;64.40;100215.34;5091650;28;20493;-83
2022/05/05 05:18:53;;;;;;;1.80;0.65;;;;;;;14.99;64.66;100218.09;5109581;28;19916;-82
2022/05/05 05:21:19;;;;;;;2.33;1.60;;;;;;;14.93;64.93;100218.25;5109457;28;20079;-82
2022/05/05 05:23:45;;;;;;;5.13;2.30;;;;;;;14.71;64.14;100207.28;5109739;28;20039;-82
2022/05/05 05:26:10;;;;;;;;;;;;;;;15.06;62.79;100215.28;5110196;28;20031;-83
2022/05/05 05:28:35;;;;;;;;;;;;;;;14.78;64.16;100213.31;5110013;28;19919;-82
2022/05/05 05:31:01;;;;;;;;;;;;;;;14.88;64.98;100222.81;5109677;28;19994;-83
2022/05/05 05:33:26;;;;;;;0.90;0.67;;;;;;;14.92;63.91;100186.41;5109269;28;19911;-82
2022/05/05 05:35:52;;;;;;;2.08;1.23;;;;;;;15.43;62.54;100195.72;5109221;28;20032;-82
2022/05/05 05:38:20;;;;;;;;;;;;;;;15.48;62.77;100218.63;5109857;28;20034;-82
2022/05/05 05:40:47;;;;;;;2.42;1.85;;;;;;;16.32;61.78;100230.44;5109332;28;19911;-82
2022/05/05 05:43:13;;;;;;;5.38;2.17;;;;;;;16.15;60.28;100183.06;5109113;28;20047;-82
2022/05/05 05:45:39;;;;;;;4.00;1.75;;;;;;;16.40;61.50;100216.91;5109683;28;20040;-82
2022/05/05 05:48:07;;;;;;;1.38;1.20;;;;;;;16.81;60.53;100206.75;5109436;28;20027;-83
2022/05/05 05:50:33;;;;;;;1.63;1.45;;;;;;;17.31;59.27;100230.00;5109054;28;20020;-83
2022/05/05 05:52:59;;;;;;;2.22;1.67;;;;;;;17.44;57.51;100215.31;5109286;28;20027;-83
2022/05/05 05:55:25;;;;;;;2.03;1.35;;;;;;;17.61;56.96;100229.84;5109103;28;20077;-83
2022/05/05 05:57:50;;;;;;;2.90;1.65;;;;;;;17.46;57.04;100201.94;5109016;28;20420;-82
2022/05/05 06:00:16;;;;;;;;;;;;;;;17.86;57.03;100219.16;5109671;28;20035;-82
2022/05/05 06:05:27;;;;;;;2.92;1.92;;;;;;;16.85;57.77;100165.75;5109086;28;20180;-82
2022/05/05 06:08:03;;;;;;;2.58;1.70;;;;;;;17.39;58.41;100213.72;5108444;28;20566;-83
2022/05/05 06:10:29;;;;;;;1.33;1.23;;;;;;;17.38;58.44;100217.31;5109072;28;20038;-83
2022/05/05 06:12:55;;;;;;;2.70;1.73;;;;;;;17.92;57.08;100197.63;5108627;28;20036;-83
2022/05/05 06:15:22;;;;;;;4.60;1.70;;;;;;;18.64;55.09;100203.75;5108537;28;20040;-83
2022/05/05 06:17:48;;;;;;;6.43;2.72;;;;;;;19.04;56.26;100226.22;5108302;28;20038;-82
2022/05/05 06:20:14;;;;;;;2.22;1.83;;;;;;;18.43;54.99;100220.56;5108559;28;20028;-82
2022/05/05 06:22:40;;;;;;;1.17;1.08;;;;;;;18.39;54.00;100226.97;5108702;28;20038;-82
2022/05/05 06:25:06;;;;;;;2.03;1.38;;;;;;;18.78;55.78;100196.03;5108831;28;20027;-82
2022/05/05 06:27:32;;;;;;;3.20;1.85;;;;;;;18.59;54.64;100207.47;5108554;28;20038;-83
2022/05/05 06:30:00;;;;;;;6.75;1.77;;;;;;;18.61;54.08;100199.41;5089768;28;20424;-83
2022/05/05 06:32:25;;;;;;;3.13;1.45;;;;;;;18.82;56.59;100203.00;5108055;28;20035;-83
2022/05/05 06:34:51;;;;;;;1.38;1.23;;;;;;;18.68;53.73;100226.75;5107776;28;20088;-82
2022/05/05 06:37:16;;;;;;;2.63;1.70;;;;;;;19.08;53.04;100211.78;5108484;28;20433;-83
2022/05/05 06:39:42;;;;;;;2.67;1.00;;;;;;;19.16;52.83;100177.56;5108387;28;20034;-83
2022/05/05 06:42:08;;;;;;;5.10;2.33;;;;;;;19.91;51.41;100213.56;5108001;28;20463;-82
2022/05/05 06:44:33;;;;;;;2.20;1.63;;;;;;;19.71;51.54;100179.63;5107581;28;20032;-82
2022/05/05 06:46:59;;;;;;;2.08;1.42;;;;;;;19.90;48.77;100209.13;5107739;28;20042;-82
2022/05/05 06:49:25;;;;;;;3.13;1.95;;;;;;;19.97;49.13;100226.66;5107989;28;20035;-82
2022/05/05 06:51:51;;;;;;;1.70;1.15;;;;;;;19.46;49.53;100203.91;5107797;28;20055;-83
2022/05/05 06:54:16;;;;;;;2.00;1.27;;;;;;;19.99;49.24;100211.38;5089345;28;20505;-82
2022/05/05 06:56:42;;;;;;;2.63;1.27;;;;;;;20.17;49.79;100233.78;5107876;28;20035;-82
2022/05/05 06:59:07;;;;;;;2.53;1.60;;;;;;;20.45;47.30;100231.59;5108285;28;20031;-82
2022/05/05 07:01:52;;;;;;;1.85;1.45;;;;;;;20.66;48.49;100182.34;5107463;28;20470;-81
2022/05/05 07:07:02;;;;;;;1.45;1.27;;;;;;;20.33;46.70;100219.66;5107607;28;20042;-82
2022/05/05 07:12:12;;;;;;;0.63;0.63;;;;;;;20.56;45.45;100191.78;5107796;28;20038;-82
2022/05/05 07:14:37;;;;;;;2.22;1.52;;;;;;;20.16;45.02;100215.97;5106630;28;20024;-84
2022/05/05 07:17:03;;;;;;;0.75;0.73;;;;;;;20.56;47.12;100199.81;5107256;28;20032;-83
2022/05/05 07:19:29;;;;;;;1.23;0.85;;;;;;;21.66;46.25;100229.22;5107149;28;20039;-83
2022/05/05 07:21:54;;;;;;;1.10;0.85;;;;;;;21.62;43.81;100197.16;5107179;28;20036;-82
2022/05/05 07:24:20;;;;;;;2.53;1.52;;;;;;;21.60;45.04;100219.69;5107207;28;20034;-82
2022/05/05 07:26:45;;;;;;;1.35;1.00;;;;;;;21.89;42.71;100217.25;5107809;28;20027;-82
2022/05/05 07:29:11;;;;;;;1.10;0.90;;;;;;;22.11;42.09;100231.28;5107517;28;20039;-82
2022/05/05 07:31:36;;;;;;;2.67;1.17;;;;;;;21.61;42.73;100216.94;5106645;27;20038;-82
2022/05/05 07:34:02;;;;;;;3.20;1.60;;;;;;;21.37;43.84;100208.28;5107109;28;20032;-83
2022/05/05 07:36:27;;;;;;;1.58;1.05;;;;;;;21.40;44.78;100223.38;5106892;28;20027;-82
2022/05/05 07:38:53;;;;;;;2.45;1.13;;;;;;;21.68;43.18;100241.63;5107086;28;20036;-82
2022/05/05 07:41:18;;;;;;;1.27;1.05;;;;;;;21.73;43.81;100207.34;5107224;28;20068;-83
2022/05/05 07:43:44;;;;;;;2.63;1.48;;;;;;;21.58;44.37;100245.72;5107214;28;20038;-83
2022/05/05 07:46:11;;;;;;;2.25;1.70;;;;;;;22.04;44.49;100245.13;5088414;28;20051;-84
2022/05/05 07:48:36;;;;;;;1.95;1.48;;;;;;;22.51;42.87;100230.94;5107249;28;20028;-83
2022/05/05 07:51:02;;;;;;;3.95;1.23;;;;;;;23.29;41.35;100232.75;5107668;28;20059;-82
2022/05/05 07:53:27;;;;;;;3.20;1.60;;;;;;;22.41;43.24;100227.88;5107171;28;20497;-82
2022/05/05 07:55:53;;;;;;;2.05;1.25;;;;;;;22.69;43.06;100229.88;5107198;28;20039;-84
2022/05/05 07:58:18;;;;;;;2.03;1.40;;;;;;;23.03;42.48;100235.13;5106933;28;20475;-84
2022/05/05 08:00:44;;;;;;;1.80;0.82;;;;;;;23.48;43.75;100233.41;5107132;28;20038;-84
2022/05/05 08:03:09;;;;;;;3.00;1.40;;;;;;;23.87;43.40;100237.34;5107072;28;20028;-84
2022/05/05 08:05:34;;;;;;;2.35;1.60;;;;;;;23.51;41.82;100179.38;5107297;28;20034;-84
2022/05/05 08:08:00;;;;;;;2.05;1.65;;;;;;;24.25;42.49;100215.22;5088516;28;20096;-84
2022/05/05 08:10:29;;;;;;;3.05;1.85;;;;;;;23.73;40.45;100223.84;5107132;28;20100;-85
2022/05/05 08:12:55;;;;;;;3.70;1.77;;;;;;;23.54;39.45;100213.28;5106585;28;20059;-85
2022/05/05 08:15:20;;;;;;;3.67;2.10;;;;;;;23.19;41.18;100197.47;5106639;28;20111;-84
2022/05/05 08:17:47;;;;;;;4.32;1.95;;;;;;;23.86;41.83;100235.59;5106484;28;20080;-85
2022/05/05 08:20:14;;;;;;;1.33;1.20;;;;;;;23.70;40.15;100230.25;5106710;28;20489;-85
2022/05/05 08:22:40;;;;;;;1.60;1.30;;;;;;;24.20;38.23;100222.69;5106753;28;20122;-84
2022/05/05 08:30:33;;;;;;;1.73;1.17;;;;;;;23.68;38.43;100215.16;5110349;28;20083;-84
2022/05/05 08:32:59;;;;;;;2.20;1.35;;;;;;;24.01;40.04;100206.84;5110384;28;20063;-84
2022/05/05 08:35:27;;;;;;;2.17;1.65;;;;;;;23.78;39.38;100206.41;5110628;28;20055;-85
2022/05/05 08:37:53;;;;;;;1.27;0.95;;;;;;;24.13;39.99;100224.06;5110992;28;20066;-84
2022/05/05 08:40:22;;;;;;;1.17;0.95;;;;;;;23.82;40.18;100233.16;5110053;28;20063;-84
2022/05/05 08:42:48;;;;;;;1.63;1.25;;;;;;;23.92;39.30;100202.88;5110517;28;20078;-84
2022/05/05 08:45:14;;;;;;;2.80;1.25;;;;;;;24.52;39.66;100237.78;5110547;28;20127;-84
2022/05/05 08:47:42;;;;;;;2.72;2.05;;;;;;;24.77;37.86;100227.16;5110331;28;20463;-83
2022/05/05 08:50:11;;;;;;;0.63;0.63;;;;;;;24.13;37.97;100213.28;5111091;28;20049;-85
2022/05/05 08:52:45;;;;;;;1.08;0.88;;;;;;;23.82;37.34;100206.22;5091193;27;20722;-85
2022/05/05 08:55:21;;;;;;;1.02;0.70;;;;;;;23.67;36.23;100200.81;5129301;27;20027;-85
2022/05/05 08:57:47;;;;;;;0.63;0.60;;;;;;;23.33;37.99;100208.25;5130666;27;20053;-86
2022/05/05 09:00:15;;;;;;;1.20;0.50;;;;;;;23.60;39.67;100197.66;5111867;27;20037;-84
2022/05/05 09:02:44;;;;;;;1.15;0.82;;;;;;;23.67;38.28;100184.66;5130631;27;20030;-84
2022/05/05 09:05:10;;;;;;;0.95;0.77;;;;;;;24.22;36.34;100218.09;5130507;27;20652;-83
2022/05/05 09:07:48;;;;;;;1.75;1.38;;;;;;;24.64;35.16;100208.22;5130468;27;20030;-82
2022/05/05 09:10:15;;;;;;;1.13;0.90;;;;;;;24.73;36.93;100209.44;5130442;27;20023;-83
2022/05/05 09:12:41;;;;;;;1.25;1.13;;;;;;;24.67;37.55;100190.97;5130221;27;20055;-84
2022/05/05 09:15:10;;;;;;;1.00;0.90;;;;;;;25.36;34.26;100196.25;5130418;27;20119;-84
2022/05/05 09:17:36;;;;;;;3.05;1.30;;;;;;;25.03;33.61;100205.66;5130221;27;20061;-84
2022/05/05 09:20:06;;;;;;;1.00;0.70;;;;;;;25.17;33.91;100196.63;5130442;27;20039;-85
2022/05/05 09:22:32;;;;;;;2.95;1.17;;;;;;;25.66;31.37;100189.72;5130529;27;20031;-84
2022/05/05 09:24:58;;;;;;;1.38;0.93;;;;;;;25.13;34.79;100178.91;5130467;27;20058;-83
2022/05/05 09:27:24;;;;;;;0.80;0.57;;;;;;;25.40;33.25;100216.69;5130294;27;20050;-83
2022/05/05 09:29:56;;;;;;;3.55;0.90;;;;;;;25.49;34.96;100226.88;5130110;27;20027;-84
2022/05/05 09:32:25;;;;;;;2.15;1.30;;;;;;;26.12;35.10;100209.91;5111576;27;20476;-84
2022/05/05 09:35:09;;;;;;;1.38;1.15;;;;;;;25.88;34.52;100216.94;5130667;27;20042;-83
2022/05/05 09:37:36;;;;;;;1.58;1.00;;;;;;;25.38;32.68;100176.31;5129249;27;20564;-83
2022/05/05 09:40:04;;;;;;;0.60;0.60;;;;;;;25.06;34.69;100193.81;5130104;27;20042;-83
2022/05/05 09:42:36;;;;;;;1.40;1.00;;;;;;;24.77;35.01;100165.09;5129730;27;20481;-84
2022/05/05 09:45:18;;;;;;;2.42;1.25;;;;;;;25.14;33.34;100221.13;5129489;27;20505;-83
2022/05/05 09:47:45;;;;;;;0.75;0.75;;;;;;;25.50;33.09;100212.41;5129757;27;20043;-84
2022/05/05 09:50:12;;;;;;;1.75;1.13;;;;;;;25.60;34.57;100200.97;5129866;27;20327;-83
2022/05/05 09:58:12;;;;;;;0.60;0.60;;;;;;;25.78;31.56;100194.25;5129343;27;20034;-83
2022/05/05 10:00:52;;;;;;;0.90;0.57;;;;;;;25.61;32.31;100181.06;5129465;27;20548;-83
2022/05/05 10:06:21;;;;;;;1.02;0.68;;;;;;;24.90;30.30;100192.16;5129354;27;20104;-82
2022/05/05 10:08:50;;;;;;;0.65;0.55;;;;;;;24.90;30.42;100196.66;5129083;27;20062;-83
2022/05/05 10:11:18;;;;;;;1.50;1.02;;;;;;;24.83;30.33;100167.38;5129695;27;20851;-83
2022/05/05 10:13:45;;;;;;;1.50;0.90;;;;;;;25.14;30.16;100189.59;5129527;27;20084;-83
2022/05/05 10:16:14;;;;;;;1.33;0.70;;;;;;;24.71;31.06;100153.88;5129381;27;20023;-83
2022/05/05 10:18:41;;;;;;;0.63;0.50;;;;;;;25.24;31.20;100186.28;5129112;27;20033;-82
2022/05/05 10:21:08;;;;;;;1.90;0.82;;;;;;;25.59;30.54;100161.41;5129193;27;20109;-82
2022/05/05 10:23:49;;;;;;;1.65;0.95;;;;;;;25.24;31.02;100180.88;5108013;28;20118;-82
2022/05/05 10:26:22;;;;;;;1.77;1.05;;;;;;;24.88;31.67;100139.25;5108499;28;20031;-83
2022/05/05 10:28:50;;;;;;;0.75;0.60;;;;;;;24.98;31.75;100161.94;5108327;28;20032;-83
2022/05/05 10:31:31;;;;;;;1.17;0.90;;;;;;;25.11;31.18;100173.63;5108947;28;20039;-83
2022/05/05 10:34:08;;;;;;;0.30;0.30;;;;;;;25.07;31.71;100176.63;5108164;28;20035;-83
2022/05/05 10:36:35;;;;;;;3.55;0.98;;;;;;;24.97;32.71;100144.88;5108379;28;20028;-83
2022/05/05 10:39:23;;;;;;;1.15;1.00;;;;;;;24.67;33.95;100137.91;5108438;28;20072;-83
2022/05/05 10:41:51;;;;;;;2.90;1.10;;;;;;;24.60;33.57;100138.41;5108248;28;20395;-83
2022/05/05 10:44:16;;;;;;;0.75;0.55;;;;;;;24.86;35.54;100162.78;5107798;28;20032;-83
2022/05/05 10:47:04;;;;;;;1.92;1.05;;;;;;;24.62;35.04;100166.13;5108169;28;20412;-82
2022/05/05 10:49:32;;;;;;;0.85;0.82;;;;;;;24.86;34.10;100160.94;5107157;28;20039;-84
2022/05/05 10:52:16;;;;;;;0.73;0.68;;;;;;;24.71;34.43;100160.13;5089613;28;20398;-82
2022/05/05 10:54:49;;;;;;;1.80;0.70;;;;;;;24.90;34.05;100148.09;5107790;28;20026;-83
2022/05/05 10:57:26;;;;;;;4.00;2.67;;;;;;;24.94;34.38;100163.97;5108379;28;20043;-82
2022/05/05 11:00:20;;;;;;;0.80;0.70;;;;;;;24.46;33.19;100168.94;5107978;28;20556;-83
2022/05/05 11:03:13;;;;;;;0.98;0.70;;;;;;;24.54;33.41;100166.59;5088788;28;20130;-82
2022/05/05 11:05:40;;;;;;;0.68;0.65;;;;;;;24.71;32.92;100146.63;5107698;28;20031;-82
2022/05/05 11:08:17;;;;;;;1.17;0.90;;;;;;;24.74;31.66;100157.22;5107798;28;20066;-83
2022/05/05 11:13:41;;;;;;;1.13;0.98;;;;;;;24.90;30.69;100166.97;5107630;28;20042;-83
2022/05/05 11:22:09;;;;;;;1.08;0.70;;;;;;;24.67;30.21;100172.09;5107783;28;20046;-83
2022/05/05 11:24:36;;;;;;;1.38;1.05;;;;;;;24.43;30.61;100148.44;5107677;28;20043;-83
2022/05/05 11:27:02;;;;;;;1.88;1.35;;;;;;;24.55;30.47;100167.47;5107452;28;20043;-83
2022/05/05 11:29:31;;;;;;;1.45;0.80;;;;;;;24.59;29.43;100167.22;5107049;28;20031;-83
2022/05/05 11:31:58;;;;;;;0.60;0.60;;;;;;;24.86;31.45;100169.03;5107946;28;20031;-82
2022/05/05 11:34:30;;;;;;;0.55;0.55;;;;;;;25.24;28.64;100179.06;5107195;28;20036;-82
2022/05/05 11:36:57;;;;;;;1.00;0.70;;;;;;;24.95;28.60;100148.66;5107688;28;20034;-83
2022/05/05 11:39:23;;;;;;;1.40;0.82;;;;;;;25.17;31.23;100157.00;5106832;28;20031;-83
2022/05/05 11:42:01;;;;;;;0.85;0.52;;;;;;;25.65;28.75;100169.06;5106828;28;20584;-82
2022/05/05 11:44:28;;;;;;;0.82;0.40;;;;;;;25.33;27.95;100154.16;5107269;28;20036;-83
2022/05/05 11:46:57;;;;;;;0.90;0.50;;;;;;;25.64;30.61;100148.44;5107002;28;20392;-82
2022/05/05 11:49:25;;;;;;;1.52;0.73;;;;;;;25.86;30.26;100153.19;5107163;28;20517;-83
2022/05/05 11:51:51;;;;;;;0.82;0.65;;;;;;;25.75;30.23;100172.88;5107303;28;20084;-82
2022/05/05 11:54:26;;;;;;;1.10;0.88;;;;;;;25.58;31.82;100167.78;5106926;28;20044;-82
2022/05/05 11:56:53;;;;;;;2.05;0.65;;;;;;;25.63;32.40;100162.94;5106746;28;20039;-83
2022/05/05 12:02:12;;;;;;;2.70;1.05;;;;;;;25.10;32.64;100176.41;5109840;28;20042;-83
2022/05/05 12:04:46;;;;;;;2.25;1.00;;;;;;;24.99;31.21;100148.34;5111039;28;20521;-83
2022/05/05 12:07:23;;;;;;;2.13;0.85;;;;;;;25.43;30.17;100167.03;5092819;28;20047;-82
2022/05/05 12:09:51;;;;;;;1.58;1.15;;;;;;;25.07;30.83;100155.03;5110794;28;20093;-84
2022/05/05 12:12:18;;;;;;;1.27;0.90;;;;;;;24.89;34.93;100173.38;5111584;28;20544;-83
2022/05/05 12:14:49;;;;;;;2.38;1.40;;;;;;;24.62;35.80;100163.44;5111263;28;20065;-82
2022/05/05 12:17:22;;;;;;;1.73;0.85;;;;;;;24.28;37.67;100155.72;5111150;28;20039;-82
2022/05/05 12:19:53;;;;;;;1.55;0.88;;;;;;;23.69;37.57;100161.19;5093099;27;20047;-83
2022/05/05 12:22:31;;;;;;;1.45;1.00;;;;;;;23.51;39.13;100133.59;5126681;27;20093;-82
2022/05/05 12:25:16;;;;;;;0.82;0.73;;;;;;;23.51;38.37;100121.94;5119761;27;20039;-83
2022/05/05 12:27:46;;;;;;;3.45;0.98;;;;;;;22.96;38.41;100110.88;5099886;28;20130;-83
2022/05/05 12:30:12;;;;;;;4.95;1.10;;;;;;;23.28;38.65;100137.72;5126339;27;20996;-83